Time;durP1;ratioP1;P1;durP2;ratioP2;P2;SDS_P1;SDS_P2;PMS_P1;PMS_P2;Temp;Humidity;BMP_temperature;BMP_pressure;BME280_temperature;BME280_humidity;BME280_pressure;Samples;Min_cycle;Max_cycle;Signal;HPM_P1;HPM_P2
2023/04/29 00:00:43;;;;;;;51.00;20.77;;;;;;;9.88;100.00;101627.88;5030132;28;20041;-58
2023/04/29 00:03:08;;;;;;;39.83;19.92;;;;;;;9.95;100.00;101637.38;5047850;28;20075;-58
2023/04/29 00:05:34;;;;;;;38.58;20.42;;;;;;;9.85;100.00;101640.16;5048888;28;20040;-58
2023/04/29 00:08:00;;;;;;;41.13;21.20;;;;;;;9.92;100.00;101643.56;5050141;28;20734;-58
2023/04/29 00:10:25;;;;;;;31.80;18.90;;;;;;;10.01;100.00;101642.53;5020333;28;20065;-56
2023/04/29 00:12:50;;;;;;;42.58;19.65;;;;;;;9.93;100.00;101647.94;5009856;28;20062;-62
2023/04/29 00:15:16;;;;;;;35.13;19.52;;;;;;;9.85;100.00;101648.06;5049746;28;20076;-60
2023/04/29 00:17:41;;;;;;;35.00;19.77;;;;;;;9.84;100.00;101646.34;5049326;28;20434;-57
2023/04/29 00:20:08;;;;;;;37.92;19.88;;;;;;;9.85;100.00;101650.69;5048463;28;20029;-58
2023/04/29 00:22:33;;;;;;;36.25;18.48;;;;;;;9.84;100.00;101656.88;5049353;28;20033;-59
2023/04/29 00:24:58;;;;;;;40.33;19.85;;;;;;;9.91;100.00;101651.50;5049910;28;20533;-60
2023/04/29 00:27:24;;;;;;;32.83;20.35;;;;;;;9.83;100.00;101649.88;5049825;28;20044;-57
2023/04/29 00:29:49;;;;;;;37.50;19.33;;;;;;;9.88;100.00;101659.44;5049891;28;20025;-59
2023/04/29 00:32:14;;;;;;;32.75;19.50;;;;;;;9.89;100.00;101651.53;5048802;28;20021;-60
2023/04/29 00:34:40;;;;;;;41.25;20.88;;;;;;;9.88;100.00;101664.72;5047191;28;20021;-58
2023/04/29 00:37:05;;;;;;;37.35;20.27;;;;;;;9.75;100.00;101664.06;5048759;28;20025;-57
2023/04/29 00:39:30;;;;;;;36.22;20.13;;;;;;;9.80;100.00;101664.84;5048226;28;20058;-62
2023/04/29 00:41:56;;;;;;;38.00;20.25;;;;;;;9.65;100.00;101663.34;5064895;28;20021;-60
2023/04/29 00:44:21;;;;;;;42.25;21.33;;;;;;;9.70;100.00;101672.88;5047439;28;20041;-57
2023/04/29 00:46:47;;;;;;;31.08;19.92;;;;;;;9.73;100.00;101661.47;5048676;28;20741;-59
2023/04/29 00:49:12;;;;;;;34.28;21.00;;;;;;;9.79;100.00;101666.63;5048690;28;20025;-58
2023/04/29 00:51:39;;;;;;;33.92;20.00;;;;;;;9.79;100.00;101661.38;5048833;28;20141;-59
2023/04/29 00:54:05;;;;;;;40.90;21.60;;;;;;;9.72;100.00;101660.59;5064499;28;20056;-59
2023/04/29 00:56:33;;;;;;;34.47;20.30;;;;;;;9.73;100.00;101669.38;5048655;28;20032;-58
2023/04/29 00:58:58;;;;;;;41.65;21.23;;;;;;;9.68;100.00;101673.81;5047771;28;20592;-59
2023/04/29 01:01:24;;;;;;;38.08;21.67;;;;;;;9.67;100.00;101677.34;5047939;28;20061;-59
2023/04/29 01:03:50;;;;;;;41.55;21.23;;;;;;;9.62;100.00;101674.78;5047721;28;20371;-57
2023/04/29 01:06:40;;;;;;;35.20;21.40;;;;;;;9.63;100.00;101678.31;5047785;28;20123;-56
2023/04/29 01:09:24;;;;;;;32.72;19.75;;;;;;;9.78;100.00;101678.03;5048117;28;20031;-58
2023/04/29 01:12:07;;;;;;;31.95;21.02;;;;;;;9.76;100.00;101686.84;5049372;28;20440;-56
2023/04/29 01:14:33;;;;;;;39.90;21.52;;;;;;;9.78;100.00;101682.44;5042919;28;20045;-58
2023/04/29 01:17:09;;;;;;;38.63;20.70;;;;;;;9.81;100.00;101687.66;5029732;28;20030;-58
2023/04/29 01:19:47;;;;;;;35.50;21.58;;;;;;;9.80;100.00;101688.53;5042762;28;20026;-61
2023/04/29 01:22:13;;;;;;;32.65;20.85;;;;;;;9.75;100.00;101685.97;5028726;28;20025;-64
2023/04/29 01:24:39;;;;;;;36.78;20.27;;;;;;;9.72;100.00;101686.91;5029021;28;20029;-57
2023/04/29 01:27:28;;;;;;;39.90;21.38;;;;;;;9.75;100.00;101685.97;5034858;28;20028;-59
2023/04/29 01:30:19;;;;;;;42.72;22.05;;;;;;;9.68;100.00;101686.97;5046492;28;20071;-59
2023/04/29 01:33:02;;;;;;;37.00;22.60;;;;;;;9.69;100.00;101691.38;5047123;28;20044;-60
2023/04/29 01:35:37;;;;;;;34.65;21.08;;;;;;;9.70;100.00;101690.47;5048098;28;20029;-60
2023/04/29 01:38:21;;;;;;;42.72;21.48;;;;;;;9.75;100.00;101691.25;5048023;28;20186;-59
2023/04/29 01:40:55;;;;;;;36.10;21.75;;;;;;;9.72;100.00;101691.28;5028818;28;20041;-59
2023/04/29 01:43:23;;;;;;;37.15;21.80;;;;;;;9.75;100.00;101700.91;5042374;28;20059;-58
2023/04/29 01:45:50;;;;;;;37.00;21.67;;;;;;;9.83;100.00;101699.00;5028058;28;20034;-56
2023/04/29 01:48:15;;;;;;;44.38;21.00;;;;;;;9.83;100.00;101696.38;5042669;28;20028;-59
2023/04/29 01:50:41;;;;;;;38.20;21.17;;;;;;;9.82;100.00;101702.56;5026415;28;20017;-59
2023/04/29 01:53:07;;;;;;;34.95;20.08;;;;;;;9.86;100.00;101701.59;5027461;28;20022;-57
2023/04/29 01:55:32;;;;;;;37.75;20.50;;;;;;;9.85;100.00;101698.09;5028262;28;20083;-57
2023/04/29 01:57:57;;;;;;;32.22;19.90;;;;;;;9.84;100.00;101703.38;5028845;28;20021;-60
2023/04/29 02:00:23;;;;;;;30.00;19.92;;;;;;;9.80;100.00;101699.94;5027237;28;20040;-58
2023/04/29 02:02:48;;;;;;;33.97;19.20;;;;;;;9.83;100.00;101694.63;5027139;28;20021;-57
2023/04/29 02:05:13;;;;;;;36.53;19.02;;;;;;;9.83;100.00;101707.78;5026257;28;20366;-59
2023/04/29 02:07:40;;;;;;;39.15;20.27;;;;;;;9.91;100.00;101718.19;5027842;28;20029;-60
2023/04/29 02:10:06;;;;;;;33.80;19.00;;;;;;;9.83;100.00;101715.69;5027707;28;20100;-63
2023/04/29 02:12:31;;;;;;;38.00;20.30;;;;;;;9.91;100.00;101719.94;5028099;28;20120;-59
2023/04/29 02:14:58;;;;;;;40.47;19.02;;;;;;;9.95;100.00;101717.25;5028409;28;20041;-57
2023/04/29 02:17:23;;;;;;;35.10;19.17;;;;;;;9.98;100.00;101718.94;5027637;28;20436;-59
2023/04/29 02:19:48;;;;;;;32.95;19.23;;;;;;;9.95;100.00;101719.00;5027510;28;20101;-59
2023/04/29 02:22:14;;;;;;;58.17;37.53;;;;;;;9.92;100.00;101727.81;5027828;28;20048;-55
2023/04/29 02:24:39;;;;;;;30.90;18.88;;;;;;;9.94;100.00;101731.28;5047883;28;20025;-59
2023/04/29 02:27:05;;;;;;;28.40;18.55;;;;;;;9.93;100.00;101732.19;5046892;28;20403;-60
2023/04/29 02:29:32;;;;;;;30.65;18.60;;;;;;;9.94;100.00;101735.69;5047713;28;20025;-60
2023/04/29 02:31:57;;;;;;;29.55;18.67;;;;;;;10.02;100.00;101741.69;5047752;28;20025;-56
2023/04/29 02:34:23;;;;;;;34.42;18.35;;;;;;;10.01;100.00;101737.31;5043238;28;20353;-56
2023/04/29 02:36:48;;;;;;;30.45;16.85;;;;;;;10.00;100.00;101740.88;5027510;28;20045;-60
2023/04/29 02:39:14;;;;;;;31.73;19.55;;;;;;;9.95;100.00;101743.56;5027188;28;20045;-60
2023/04/29 02:41:40;;;;;;;31.10;17.13;;;;;;;9.98;100.00;101745.28;5026882;28;20029;-58
2023/04/29 02:44:06;;;;;;;29.08;17.95;;;;;;;9.93;100.00;101749.75;5027096;28;20075;-57
2023/04/29 02:46:33;;;;;;;28.02;16.65;;;;;;;10.00;100.00;101751.41;5030522;28;20440;-60
2023/04/29 02:48:59;;;;;;;30.33;16.67;;;;;;;10.02;100.00;101754.84;5048014;28;20020;-59
2023/04/29 02:51:25;;;;;;;26.15;17.15;;;;;;;9.92;100.00;101756.78;5045670;28;20028;-60
2023/04/29 02:53:50;;;;;;;26.90;15.90;;;;;;;10.01;100.00;101766.28;5019741;28;20033;-59
2023/04/29 02:56:16;;;;;;;26.98;17.15;;;;;;;10.04;100.00;101760.97;5023873;28;20103;-55
2023/04/29 02:58:41;;;;;;;27.15;17.63;;;;;;;9.96;100.00;101763.72;5026797;28;20081;-59
2023/04/29 03:01:06;;;;;;;24.73;15.13;;;;;;;10.02;100.00;101773.28;5026360;28;20029;-59
2023/04/29 03:03:32;;;;;;;27.92;16.40;;;;;;;9.99;100.00;101768.06;5026912;28;20413;-60
2023/04/29 03:05:57;;;;;;;33.25;17.75;;;;;;;10.01;100.00;101775.94;5026557;28;20037;-59
2023/04/29 03:08:23;;;;;;;26.30;16.83;;;;;;;10.03;100.00;101775.03;5045388;28;20548;-59
2023/04/29 03:10:48;;;;;;;28.30;15.45;;;;;;;10.06;100.00;101776.75;5046929;28;20025;-59
2023/04/29 03:13:13;;;;;;;28.48;16.77;;;;;;;10.05;100.00;101778.50;5046089;28;20028;-58
2023/04/29 03:15:39;;;;;;;26.40;16.05;;;;;;;9.99;100.00;101783.88;5045619;28;20086;-60
2023/04/29 03:18:04;;;;;;;27.85;16.27;;;;;;;10.04;100.00;101775.91;5039513;28;20112;-59
2023/04/29 03:20:29;;;;;;;27.95;15.68;;;;;;;10.03;100.00;101782.94;5026712;28;20156;-57
2023/04/29 03:22:54;;;;;;;29.30;17.15;;;;;;;9.92;100.00;101788.38;5026169;28;20518;-57
2023/04/29 03:25:20;;;;;;;23.75;16.05;;;;;;;9.98;100.00;101782.13;5026704;28;20471;-59
2023/04/29 03:27:46;;;;;;;24.27;16.48;;;;;;;10.01;100.00;101779.44;5027322;28;20032;-58
2023/04/29 03:30:11;;;;;;;24.33;15.57;;;;;;;10.01;100.00;101771.56;5025997;28;20034;-59
2023/04/29 03:32:36;;;;;;;28.38;15.48;;;;;;;9.94;100.00;101776.03;5026056;28;20663;-56
2023/04/29 03:35:02;;;;;;;24.92;14.52;;;;;;;9.98;100.00;101787.41;5025203;28;20117;-61
2023/04/29 03:37:27;;;;;;;25.67;16.02;;;;;;;10.02;100.00;101782.97;5027537;28;20076;-58
2023/04/29 03:39:52;;;;;;;26.65;14.93;;;;;;;10.03;100.00;101788.22;5026928;28;20026;-57
2023/04/29 03:42:18;;;;;;;22.95;14.82;;;;;;;10.09;100.00;101785.44;5033712;28;20025;-59
2023/04/29 03:44:43;;;;;;;24.38;15.13;;;;;;;10.06;100.00;101784.66;5046451;28;20033;-61
2023/04/29 03:47:09;;;;;;;23.48;14.52;;;;;;;10.06;100.00;101790.75;5045736;28;20565;-56
2023/04/29 03:49:34;;;;;;;25.77;15.05;;;;;;;10.05;100.00;101783.78;5045867;28;20168;-57
2023/04/29 03:51:59;;;;;;;29.02;15.70;;;;;;;10.11;100.00;101793.31;5046871;28;20387;-59
2023/04/29 03:54:25;;;;;;;25.40;14.88;;;;;;;10.03;100.00;101801.38;5045267;28;20040;-62
2023/04/29 03:56:50;;;;;;;24.65;14.98;;;;;;;10.05;100.00;101794.31;5045377;28;20032;-57
2023/04/29 03:59:15;;;;;;;24.38;14.98;;;;;;;10.09;100.00;101793.34;5045190;28;20018;-58
2023/04/29 04:01:41;;;;;;;26.75;15.05;;;;;;;10.10;100.00;101802.13;5046466;28;20037;-61
2023/04/29 04:04:06;;;;;;;24.45;14.57;;;;;;;10.11;100.00;101798.59;5053514;28;20029;-60
2023/04/29 04:06:31;;;;;;;31.15;15.27;;;;;;;10.08;100.00;101804.78;5025587;28;20531;-56
2023/04/29 04:08:57;;;;;;;26.25;16.00;;;;;;;10.13;100.00;101807.34;5028370;28;20047;-59
2023/04/29 04:11:22;;;;;;;26.77;14.93;;;;;;;10.11;100.00;101807.38;5042965;28;20029;-59
2023/04/29 04:13:48;;;;;;;28.15;16.23;;;;;;;10.17;100.00;101814.28;5025798;28;20045;-60
2023/04/29 04:16:14;;;;;;;29.70;16.98;;;;;;;10.09;100.00;101821.47;5017036;28;20046;-57
2023/04/29 04:18:39;;;;;;;28.30;16.55;;;;;;;10.08;100.00;101811.81;5025141;28;20431;-57
2023/04/29 04:21:08;;;;;;;26.25;15.95;;;;;;;10.12;100.00;101810.88;5025450;28;20065;-60
2023/04/29 04:23:34;;;;;;;29.42;17.08;;;;;;;10.15;100.00;101828.41;5025821;28;20116;-59
2023/04/29 04:25:59;;;;;;;32.28;17.30;;;;;;;10.09;100.00;101817.06;5016421;28;20117;-56
2023/04/29 04:28:25;;;;;;;31.30;17.17;;;;;;;10.08;100.00;101823.22;5024974;28;20232;-58
2023/04/29 04:30:50;;;;;;;24.20;16.83;;;;;;;10.10;100.00;101824.06;5028911;28;20065;-60
2023/04/29 04:33:15;;;;;;;35.22;18.10;;;;;;;10.07;100.00;101828.50;5029259;28;20033;-60
2023/04/29 04:35:41;;;;;;;34.70;16.77;;;;;;;10.04;100.00;101832.06;5027993;28;20027;-57
2023/04/29 04:38:08;;;;;;;31.90;17.75;;;;;;;10.08;100.00;101832.88;5028679;28;20029;-59
2023/04/29 04:40:33;;;;;;;32.35;17.40;;;;;;;10.12;100.00;101837.22;5044699;28;20439;-57
2023/04/29 04:42:59;;;;;;;34.38;17.25;;;;;;;10.11;100.00;101838.09;5020631;28;20026;-60
2023/04/29 04:45:25;;;;;;;29.55;17.05;;;;;;;10.13;100.00;101843.34;5024722;28;20080;-57
2023/04/29 04:47:50;;;;;;;30.38;17.42;;;;;;;10.09;100.00;101846.03;5027948;28;20053;-58
2023/04/29 04:50:15;;;;;;;35.63;17.75;;;;;;;10.11;100.00;101846.00;5028351;28;20026;-61
2023/04/29 04:52:41;;;;;;;32.83;18.20;;;;;;;10.13;100.00;101851.25;5045086;28;20033;-61
2023/04/29 04:55:07;;;;;;;31.27;17.95;;;;;;;10.20;100.00;101860.78;5028591;28;20096;-57
2023/04/29 04:57:32;;;;;;;33.47;18.55;;;;;;;10.17;100.00;101858.22;5029105;28;20025;-60
2023/04/29 04:59:58;;;;;;;38.80;19.70;;;;;;;10.09;100.00;101867.09;5028719;28;20025;-61
2023/04/29 05:02:23;;;;;;;38.22;19.63;;;;;;;10.16;100.00;101867.88;5017757;28;20373;-59
2023/04/29 05:04:48;;;;;;;48.67;20.52;;;;;;;10.18;100.00;101859.94;5027161;28;20029;-58
2023/04/29 05:07:14;;;;;;;37.70;18.92;;;;;;;10.27;100.00;101870.34;5028232;28;20031;-58
2023/04/29 05:09:39;;;;;;;46.65;19.65;;;;;;;10.19;100.00;101880.13;5027961;28;20021;-59
2023/04/29 05:12:05;;;;;;;46.60;19.83;;;;;;;10.22;100.00;101880.97;5028315;28;20025;-59
2023/04/29 05:14:30;;;;;;;37.53;19.13;;;;;;;10.22;100.00;101888.84;5028425;28;20046;-62
2023/04/29 05:16:59;;;;;;;37.95;19.17;;;;;;;10.30;100.00;101893.13;5028111;28;20072;-58
2023/04/29 05:19:24;;;;;;;38.80;19.15;;;;;;;10.34;100.00;101894.81;5026393;28;21144;-58
2023/04/29 05:21:50;;;;;;;39.80;20.48;;;;;;;10.38;100.00;101896.50;5029062;28;20041;-57
2023/04/29 05:24:16;;;;;;;36.80;19.65;;;;;;;10.43;100.00;101902.59;5028227;28;20083;-62
2023/04/29 05:26:42;;;;;;;40.95;20.08;;;;;;;10.43;100.00;101901.69;5028852;28;20135;-60
2023/04/29 05:29:09;;;;;;;32.97;19.27;;;;;;;10.38;100.00;101907.03;5028640;28;20021;-59
2023/04/29 05:31:34;;;;;;;38.67;20.10;;;;;;;10.44;100.00;101908.69;5028425;28;20021;-59
2023/04/29 05:34:00;;;;;;;37.80;19.10;;;;;;;10.49;100.00;101914.81;5028310;28;20364;-61
2023/04/29 05:36:26;;;;;;;42.30;20.20;;;;;;;10.51;100.00;101913.03;5028839;28;20025;-60
2023/04/29 05:38:52;;;;;;;35.25;19.23;;;;;;;10.43;100.00;101915.75;5025016;28;20584;-59
2023/04/29 05:41:17;;;;;;;42.60;20.42;;;;;;;10.52;100.00;101917.41;5028069;28;20118;-60
2023/04/29 05:43:43;;;;;;;37.72;19.38;;;;;;;10.62;100.00;101920.75;5028876;28;20136;-62
2023/04/29 05:46:08;;;;;;;30.90;18.35;;;;;;;10.51;100.00;101917.44;5028054;28;20030;-60
2023/04/29 05:48:33;;;;;;;35.33;18.75;;;;;;;10.63;100.00;101911.09;5028068;28;20041;-60
2023/04/29 05:50:59;;;;;;;29.33;17.38;;;;;;;10.39;100.00;101921.09;5028133;28;20010;-61
2023/04/29 05:53:24;;;;;;;37.72;18.48;;;;;;;10.54;100.00;101928.78;5028423;28;20041;-58
2023/04/29 05:55:50;;;;;;;26.70;15.85;;;;;;;10.54;100.00;101928.78;5023748;28;20025;-57
2023/04/29 05:58:15;;;;;;;27.35;15.40;;;;;;;10.66;100.00;101930.38;5019247;28;20719;-60
2023/04/29 06:00:42;;;;;;;20.73;14.25;;;;;;;10.70;100.00;101939.06;5026763;28;20639;-59
2023/04/29 06:03:08;;;;;;;22.35;14.90;;;;;;;10.80;100.00;101940.66;5026718;28;20028;-59
2023/04/29 06:05:34;;;;;;;23.52;14.23;;;;;;;10.86;100.00;101942.31;5024785;28;20033;-58
2023/04/29 06:07:59;;;;;;;30.23;13.77;;;;;;;11.04;100.00;101949.03;5026458;28;20306;-57
2023/04/29 06:10:25;;;;;;;23.50;13.82;;;;;;;11.08;100.00;101955.13;5026553;28;20116;-59
2023/04/29 06:12:50;;;;;;;29.05;14.45;;;;;;;11.17;100.00;101952.31;5041949;28;20033;-60
2023/04/29 06:15:16;;;;;;;26.50;13.82;;;;;;;11.00;100.00;101957.91;5026037;28;20037;-61
2023/04/29 06:17:41;;;;;;;28.75;14.45;;;;;;;11.08;100.00;101960.41;5026250;28;20108;-60
2023/04/29 06:20:08;;;;;;;26.73;14.02;;;;;;;11.27;100.00;101974.13;5025754;28;20048;-60
2023/04/29 06:22:33;;;;;;;21.70;13.02;;;;;;;11.45;100.00;101969.41;5026737;28;20022;-61
2023/04/29 06:24:58;;;;;;;20.77;12.63;;;;;;;11.55;100.00;101975.34;5037973;28;20043;-58
2023/04/29 06:27:24;;;;;;;23.83;13.70;;;;;;;11.38;100.00;101981.84;5033066;28;20071;-59
2023/04/29 06:29:49;;;;;;;23.95;13.52;;;;;;;11.22;100.00;101979.47;5025250;28;20122;-59
2023/04/29 06:32:15;;;;;;;21.52;12.55;;;;;;;11.02;100.00;101984.25;5024342;28;20072;-61
2023/04/29 06:34:40;;;;;;;25.08;13.32;;;;;;;10.99;100.00;101985.19;5025646;28;20020;-60
2023/04/29 06:37:06;;;;;;;23.23;13.07;;;;;;;10.94;100.00;101984.38;5025299;28;20443;-59
2023/04/29 06:39:31;;;;;;;22.65;12.95;;;;;;;11.01;100.00;101993.06;5041350;28;20033;-60
2023/04/29 06:41:57;;;;;;;20.08;12.90;;;;;;;10.96;100.00;101995.78;5046455;28;20107;-60
2023/04/29 06:44:23;;;;;;;22.77;12.00;;;;;;;11.08;100.00;101992.06;5045351;28;20025;-60
2023/04/29 06:46:48;;;;;;;19.90;12.00;;;;;;;11.14;100.00;101997.22;5045605;28;20395;-59
2023/04/29 06:49:13;;;;;;;18.58;11.30;;;;;;;11.05;100.00;102003.50;5044913;28;20117;-59
2023/04/29 06:51:41;;;;;;;18.25;10.15;;;;;;;10.93;100.00;102015.13;5046304;28;20029;-59
2023/04/29 06:54:06;;;;;;;22.40;11.70;;;;;;;10.96;100.00;102014.25;5032310;28;20069;-58
2023/04/29 06:56:32;;;;;;;24.65;10.90;;;;;;;10.84;100.00;102021.44;5026333;28;20354;-62
2023/04/29 06:58:57;;;;;;;16.00;10.40;;;;;;;10.98;100.00;102025.63;5025316;28;20495;-61
2023/04/29 07:01:22;;;;;;;17.27;10.25;;;;;;;10.93;100.00;102022.19;5025508;28;20101;-60
2023/04/29 07:03:48;;;;;;;15.70;9.95;;;;;;;10.90;100.00;102031.03;5024391;28;20025;-59
2023/04/29 07:06:13;;;;;;;16.90;10.52;;;;;;;11.06;100.00;102042.19;5025356;28;20406;-61
2023/04/29 07:08:38;;;;;;;13.32;9.32;;;;;;;11.04;100.00;102038.72;5026017;28;20072;-59
2023/04/29 07:11:04;;;;;;;14.45;10.00;;;;;;;11.10;100.00;102043.88;5025933;28;20429;-58
2023/04/29 07:13:29;;;;;;;18.52;9.38;;;;;;;10.97;100.00;102052.91;5033343;28;20447;-57
2023/04/29 07:15:55;;;;;;;18.48;9.93;;;;;;;10.85;100.00;102049.56;5043530;28;20047;-59
2023/04/29 07:18:20;;;;;;;16.33;9.75;;;;;;;10.94;100.00;102050.31;5037425;28;20026;-59
2023/04/29 07:20:46;;;;;;;17.98;9.90;;;;;;;10.95;100.00;102046.75;5024313;28;20641;-62
2023/04/29 07:23:13;;;;;;;14.95;9.48;;;;;;;11.02;100.00;102048.44;5024517;28;20033;-63
2023/04/29 07:25:38;;;;;;;15.15;9.52;;;;;;;11.11;100.00;102050.03;5025411;28;20021;-61
2023/04/29 07:28:04;;;;;;;16.50;8.73;;;;;;;11.32;100.00;102059.34;5025321;28;20032;-59
2023/04/29 07:30:29;;;;;;;12.68;8.40;;;;;;;11.42;100.00;102059.19;5025858;28;20036;-64
2023/04/29 07:32:55;;;;;;;16.58;9.20;;;;;;;11.48;100.00;102059.97;5026468;28;20119;-59
2023/04/29 07:35:21;;;;;;;13.00;8.68;;;;;;;11.58;100.00;102068.56;5043887;28;20526;-61
2023/04/29 07:37:47;;;;;;;10.95;8.02;;;;;;;11.60;100.00;102064.13;5043845;28;20022;-60
2023/04/29 07:40:12;;;;;;;14.75;8.40;;;;;;;11.58;100.00;102076.47;5031217;28;20026;-60
2023/04/29 07:42:37;;;;;;;13.30;8.13;;;;;;;11.77;100.00;102072.63;5023455;28;20514;-59
2023/04/29 07:45:03;;;;;;;12.85;6.95;;;;;;;11.61;100.00;102071.16;5024021;28;20032;-61
2023/04/29 07:47:28;;;;;;;16.23;8.25;;;;;;;11.73;100.00;102074.44;5025086;28;20022;-60
2023/04/29 07:49:54;;;;;;;12.43;7.70;;;;;;;12.02;100.00;102075.66;5024967;28;20104;-60
2023/04/29 07:52:19;;;;;;;17.73;7.90;;;;;;;12.27;100.00;102075.19;5026410;28;20895;-60
2023/04/29 07:54:44;;;;;;;15.00;8.00;;;;;;;12.25;100.00;102082.25;5028095;28;20025;-62
2023/04/29 07:57:10;;;;;;;14.75;7.90;;;;;;;12.56;100.00;102083.38;5045052;28;20375;-61
2023/04/29 07:59:35;;;;;;;15.23;8.15;;;;;;;12.47;100.00;102076.53;5028832;28;20029;-61
2023/04/29 08:02:00;;;;;;;12.80;7.15;;;;;;;12.35;100.00;102081.19;5024881;28;20331;-62
2023/04/29 08:04:26;;;;;;;11.82;6.88;;;;;;;12.69;100.00;102081.31;5027494;28;20029;-61
2023/04/29 08:06:51;;;;;;;12.55;6.80;;;;;;;12.94;100.00;102081.63;5028549;28;20429;-61
2023/04/29 08:09:16;;;;;;;11.55;6.32;;;;;;;13.26;100.00;102074.66;5028542;28;20539;-60
2023/04/29 08:11:42;;;;;;;12.20;6.43;;;;;;;13.20;100.00;102087.16;5028556;28;20125;-61
2023/04/29 08:14:07;;;;;;;9.38;5.72;;;;;;;12.88;100.00;102077.34;5027727;28;20021;-63
2023/04/29 08:16:33;;;;;;;10.15;5.88;;;;;;;13.12;100.00;102080.31;5029265;28;20069;-63
2023/04/29 08:18:58;;;;;;;7.13;5.00;;;;;;;13.10;100.00;102078.59;5028583;28;20026;-61
2023/04/29 08:21:23;;;;;;;8.23;5.45;;;;;;;13.34;100.00;102073.59;5028699;28;20029;-59
2023/04/29 08:23:49;;;;;;;9.57;5.43;;;;;;;13.25;100.00;102074.72;5028614;28;20085;-60
2023/04/29 08:26:14;;;;;;;10.30;5.40;;;;;;;13.74;98.71;102074.34;5029421;28;20498;-60
2023/04/29 08:28:40;;;;;;;7.88;5.13;;;;;;;13.59;100.00;102081.81;5029617;28;20416;-63
2023/04/29 08:31:09;;;;;;;12.25;5.50;;;;;;;13.79;97.47;102079.53;5029218;28;20103;-60
2023/04/29 08:33:35;;;;;;;10.88;5.60;;;;;;;13.46;96.40;102088.28;5028532;28;20029;-61
2023/04/29 08:36:02;;;;;;;12.45;5.75;;;;;;;13.83;97.72;102090.00;5028588;28;20029;-64
2023/04/29 08:38:31;;;;;;;6.75;5.38;;;;;;;13.94;96.00;102088.81;5030106;28;20064;-61
2023/04/29 08:40:57;;;;;;;8.95;4.90;;;;;;;14.24;95.82;102087.06;5038394;28;20513;-62
2023/04/29 08:43:22;;;;;;;9.23;4.90;;;;;;;14.55;93.44;102089.69;5049590;28;20029;-59
2023/04/29 08:45:48;;;;;;;6.53;4.60;;;;;;;14.42;94.12;102089.22;5064869;28;20056;-60
2023/04/29 08:48:15;;;;;;;8.27;4.88;;;;;;;14.62;93.07;102101.84;5038472;28;20428;-60
2023/04/29 08:50:41;;;;;;;11.10;5.03;;;;;;;14.48;92.81;102102.28;5029054;28;20022;-65
2023/04/29 08:53:07;;;;;;;8.20;5.07;;;;;;;14.23;92.54;102105.66;5041083;28;20029;-59
2023/04/29 08:55:35;;;;;;;10.20;4.80;;;;;;;14.25;93.11;102107.38;5028812;28;20029;-62
2023/04/29 08:58:01;;;;;;;6.07;4.38;;;;;;;14.33;94.24;102112.41;5028723;28;20083;-64
2023/04/29 09:00:26;;;;;;;7.50;4.70;;;;;;;14.35;92.17;102115.03;5029404;28;20029;-61
2023/04/29 09:02:52;;;;;;;6.72;4.72;;;;;;;14.34;92.16;102114.19;5027589;28;20025;-60
2023/04/29 09:05:18;;;;;;;10.77;4.65;;;;;;;14.55;92.65;102114.44;5027675;28;20095;-60
2023/04/29 09:07:44;;;;;;;7.28;4.80;;;;;;;14.86;89.24;102117.94;5029387;28;20025;-59
2023/04/29 09:10:10;;;;;;;6.00;4.72;;;;;;;14.63;89.99;102109.75;5027760;28;20034;-59
2023/04/29 09:12:36;;;;;;;11.50;5.90;;;;;;;14.22;93.39;102109.22;5044518;28;20494;-58
2023/04/29 09:15:02;;;;;;;9.80;5.00;;;;;;;14.17;95.40;102108.50;5048657;28;20055;-62
2023/04/29 09:17:46;;;;;;;8.68;5.95;;;;;;;14.60;96.92;102115.16;5035391;28;20072;-58
2023/04/29 09:20:21;;;;;;;11.65;6.97;;;;;;;14.86;96.15;102120.59;5027462;28;20029;-59
2023/04/29 09:22:47;;;;;;;15.38;7.07;;;;;;;14.49;99.38;102112.84;5035833;28;20064;-62
2023/04/29 09:25:13;;;;;;;13.57;6.53;;;;;;;14.42;98.91;102118.38;5033905;28;20087;-62
2023/04/29 09:27:38;;;;;;;12.65;6.63;;;;;;;14.29;97.75;102121.38;5027175;28;20524;-63
2023/04/29 09:30:04;;;;;;;18.92;7.07;;;;;;;14.37;98.46;102124.69;5028441;28;20018;-60
2023/04/29 09:32:29;;;;;;;14.20;7.00;;;;;;;14.56;97.33;102120.59;5037585;28;20026;-62
2023/04/29 09:34:55;;;;;;;14.15;6.38;;;;;;;14.70;97.88;102115.78;5027469;28;20025;-59
2023/04/29 09:37:25;;;;;;;11.65;6.43;;;;;;;15.04;96.81;102124.47;5028056;28;20065;-60
2023/04/29 09:39:50;;;;;;;14.05;6.97;;;;;;;14.79;96.65;102125.25;5026590;28;20564;-58
2023/04/29 09:42:15;;;;;;;11.35;6.13;;;;;;;15.35;93.91;102131.41;5027547;28;20051;-61
2023/04/29 09:44:41;;;;;;;12.60;6.30;;;;;;;15.62;93.45;102131.41;5026572;28;20035;-58
2023/04/29 09:47:08;;;;;;;13.82;6.65;;;;;;;15.70;91.48;102130.25;5028404;28;20018;-58
2023/04/29 09:49:40;;;;;;;7.63;5.45;;;;;;;15.54;92.46;102129.00;5036262;28;20187;-56
2023/04/29 09:52:10;;;;;;;11.90;5.38;;;;;;;15.73;85.91;102131.03;5040589;28;20036;-62
2023/04/29 09:54:37;;;;;;;10.73;5.05;;;;;;;15.29;87.31;102131.63;5027491;28;20091;-58
2023/04/29 09:57:06;;;;;;;6.97;4.72;;;;;;;15.38;89.90;102138.44;5031701;28;20025;-62
2023/04/29 09:59:34;;;;;;;8.70;6.03;;;;;;;15.53;88.97;102134.38;5048190;28;20040;-60
2023/04/29 10:02:02;;;;;;;12.70;6.28;;;;;;;15.76;88.83;102138.03;5047386;28;20017;-62
2023/04/29 10:04:28;;;;;;;14.82;5.97;;;;;;;15.67;91.05;102131.25;5043638;28;20022;-59
2023/04/29 10:06:55;;;;;;;9.88;5.90;;;;;;;15.90;84.38;102141.03;5024098;28;20021;-59
2023/04/29 10:09:21;;;;;;;8.30;5.18;;;;;;;15.50;84.86;102145.13;5028618;28;20577;-61
2023/04/29 10:11:49;;;;;;;11.07;5.55;;;;;;;15.49;86.91;102151.34;5043975;28;20384;-59
2023/04/29 10:14:17;;;;;;;7.97;4.80;;;;;;;15.94;81.79;102148.91;5025476;28;20024;-59
2023/04/29 10:17:26;;;;;;;7.03;4.18;;;;;;;16.05;82.13;102146.78;5024645;28;20060;-59
2023/04/29 10:19:58;;;;;;;5.85;4.20;;;;;;;15.83;83.65;102146.66;5014338;28;20536;-59
2023/04/29 10:22:48;;;;;;;6.05;5.32;;;;;;;15.99;82.11;102150.53;5025421;28;20075;-64
2023/04/29 10:25:18;;;;;;;8.98;5.85;;;;;;;16.25;81.15;102145.16;5024147;28;20053;-60
2023/04/29 10:27:44;;;;;;;5.72;4.93;;;;;;;16.03;81.98;102152.16;5023839;28;20032;-62
2023/04/29 10:30:16;;;;;;;6.93;5.22;;;;;;;15.97;81.38;102148.84;5022832;28;20017;-60
2023/04/29 10:32:46;;;;;;;9.38;5.72;;;;;;;15.69;83.35;102160.41;5013769;28;20061;-62
2023/04/29 10:35:13;;;;;;;9.18;5.88;;;;;;;15.75;83.78;102154.91;5020360;28;20514;-59
2023/04/29 10:37:39;;;;;;;9.27;6.18;;;;;;;16.03;82.53;102159.25;5025613;28;20059;-60
2023/04/29 10:40:35;;;;;;;10.18;6.28;;;;;;;16.13;81.10;102147.38;5022508;28;20100;-62
2023/04/29 10:43:01;;;;;;;9.40;5.88;;;;;;;16.17;81.19;102154.28;5020841;28;20037;-61
2023/04/29 10:45:31;;;;;;;13.07;6.53;;;;;;;16.30;81.75;102148.53;5041475;28;20040;-60
2023/04/29 10:48:07;;;;;;;8.20;6.20;;;;;;;15.81;83.80;102146.72;5022938;28;20041;-59
2023/04/29 10:50:45;;;;;;;9.50;5.90;;;;;;;15.74;85.39;102145.19;5039214;28;20033;-59
2023/04/29 10:53:10;;;;;;;9.88;6.15;;;;;;;15.68;84.55;102143.59;5022905;28;20017;-61
2023/04/29 10:55:37;;;;;;;14.15;6.47;;;;;;;15.60;83.62;102148.31;5024831;28;20549;-61
2023/04/29 10:58:03;;;;;;;9.20;5.60;;;;;;;15.68;85.88;102145.41;5030781;28;20021;-59
2023/04/29 11:00:31;;;;;;;9.02;5.90;;;;;;;16.01;86.92;102146.00;5024977;28;20014;-61
2023/04/29 11:02:57;;;;;;;9.38;5.80;;;;;;;16.48;82.20;102151.41;5026320;28;20096;-59
2023/04/29 11:05:36;;;;;;;8.43;5.30;;;;;;;16.72;82.86;102146.06;5025506;28;20040;-59
2023/04/29 11:08:12;;;;;;;9.73;5.88;;;;;;;16.71;84.78;102147.00;5026136;28;20373;-62